Time;durP1;ratioP1;P1;durP2;ratioP2;P2;SDS_P1;SDS_P2;PMS_P1;PMS_P2;Temp;Humidity;BMP_temperature;BMP_pressure;BME280_temperature;BME280_humidity;BME280_pressure;Samples;Min_cycle;Max_cycle;Signal;HPM_P1;HPM_P2
2023/06/12 00:01:24;;;;;;;7.30;6.03;;;;;;;;;;6112045;23;20388;-94
2023/06/12 00:03:50;;;;;;;7.00;6.30;;;;;;;;;;6111840;23;20381;-92
2023/06/12 00:06:17;;;;;;;6.70;5.80;;;;;;;;;;6113715;23;20397;-92
2023/06/12 00:08:43;;;;;;;6.10;5.27;;;;;;;;;;6111162;23;20392;-92
2023/06/12 00:11:12;;;;;;;7.10;6.00;;;;;;;;;;6112156;23;20900;-92
2023/06/12 00:13:42;;;;;;;5.70;5.20;;;;;;;;;;6137041;23;21107;-93
2023/06/12 00:16:08;;;;;;;7.20;5.63;;;;;;;;;;6112357;23;20428;-92
2023/06/12 00:18:35;;;;;;;6.50;5.00;;;;;;;;;;6112659;23;20393;-91
2023/06/12 00:21:01;;;;;;;8.13;5.93;;;;;;;;;;6114953;23;20381;-91
2023/06/12 00:23:28;;;;;;;7.67;5.77;;;;;;;;;;6112679;23;20527;-94
2023/06/12 00:25:54;;;;;;;6.53;5.80;;;;;;;;;;6113135;23;20498;-93
2023/06/12 00:28:20;;;;;;;6.30;5.53;;;;;;;;;;6114352;23;20381;-95
2023/06/12 00:30:46;;;;;;;5.43;4.93;;;;;;;;;;6112741;23;20441;-94
2023/06/12 00:33:12;;;;;;;8.50;7.60;;;;;;;;;;6114050;23;20384;-94
2023/06/12 00:35:38;;;;;;;8.30;5.83;;;;;;;;;;6110732;23;20385;-92
2023/06/12 00:38:06;;;;;;;5.87;5.37;;;;;;;;;;6112785;23;20393;-94
2023/06/12 00:40:32;;;;;;;5.80;4.60;;;;;;;;;;6112944;23;20414;-94
2023/06/12 00:42:58;;;;;;;6.60;6.00;;;;;;;;;;6114496;23;20695;-95
2023/06/12 00:45:24;;;;;;;6.60;5.63;;;;;;;;;;6113219;23;20432;-94
2023/06/12 00:47:53;;;;;;;6.63;6.00;;;;;;;;;;6115264;23;20388;-94
2023/06/12 00:50:20;;;;;;;6.10;5.20;;;;;;;;;;6112747;23;20400;-94
2023/06/12 00:52:49;;;;;;;6.93;5.33;;;;;;;;;;6112780;23;20391;-92
2023/06/12 00:55:15;;;;;;;5.73;5.23;;;;;;;;;;6113453;23;20380;-94
2023/06/12 00:57:42;;;;;;;6.10;5.50;;;;;;;;;;6115731;23;20500;-95
2023/06/12 01:00:09;;;;;;;6.70;5.60;;;;;;;;;;6114080;23;20393;-93
2023/06/12 01:02:39;;;;;;;5.57;5.07;;;;;;;;;;6112850;23;20385;-91
2023/06/12 01:05:07;;;;;;;5.77;4.83;;;;;;;;;;6112564;23;20872;-94
2023/06/12 01:07:38;;;;;;;6.00;5.30;;;;;;;;;;6112427;23;20860;-92
2023/06/12 01:10:18;;;;;;;5.60;5.10;;;;;;;;;;6112697;23;20443;-93
2023/06/12 01:12:45;;;;;;;5.90;5.10;;;;;;;;;;6112404;23;20462;-93
2023/06/12 01:15:11;;;;;;;5.13;4.63;;;;;;;;;;6114145;23;20399;-94
2023/06/12 01:17:40;;;;;;;6.63;5.33;;;;;;;;;;6113759;23;20424;-93
2023/06/12 01:20:06;;;;;;;6.93;5.10;;;;;;;;;;6113912;23;20365;-94
2023/06/12 01:22:32;;;;;;;5.43;4.90;;;;;;;;;;6112291;23;20385;-94
2023/06/12 01:25:17;;;;;;;5.77;4.63;;;;;;;;;;6111553;23;20389;-92
2023/06/12 01:27:43;;;;;;;5.50;4.30;;;;;;;;;;6136131;23;20389;-94
2023/06/12 01:30:28;;;;;;;6.90;5.60;;;;;;;;;;6134215;23;20425;-92
2023/06/12 01:32:56;;;;;;;4.77;3.87;;;;;;;;;;6135166;23;20643;-96
2023/06/12 01:35:24;;;;;;;6.73;5.30;;;;;;;;;;6110805;23;20381;-93
2023/06/12 01:37:52;;;;;;;5.63;4.20;;;;;;;;;;6109941;23;21038;-93
2023/06/12 01:40:18;;;;;;;6.03;4.97;;;;;;;;;;6110004;23;20400;-91
2023/06/12 01:42:44;;;;;;;6.80;6.20;;;;;;;;;;6114116;23;20425;-93
2023/06/12 01:45:10;;;;;;;5.87;4.87;;;;;;;;;;6111793;23;20384;-94
2023/06/12 01:47:36;;;;;;;6.13;5.20;;;;;;;;;;6112341;23;20899;-92
2023/06/12 01:50:06;;;;;;;4.97;4.43;;;;;;;;;;6112766;23;20913;-93
2023/06/12 01:52:35;;;;;;;5.63;5.13;;;;;;;;;;6112282;23;20412;-93
2023/06/12 01:55:02;;;;;;;6.77;5.00;;;;;;;;;;6110279;23;20404;-88
2023/06/12 01:57:28;;;;;;;5.87;5.20;;;;;;;;;;6105560;23;20464;-89
2023/06/12 01:59:54;;;;;;;5.53;4.90;;;;;;;;;;6104299;23;20389;-88
2023/06/12 02:02:20;;;;;;;6.07;5.27;;;;;;;;;;6105173;23;20435;-88
2023/06/12 02:04:46;;;;;;;6.50;5.90;;;;;;;;;;6106743;23;20388;-88
2023/06/12 02:07:12;;;;;;;5.53;5.03;;;;;;;;;;6104875;23;20500;-86
2023/06/12 02:09:38;;;;;;;7.27;6.20;;;;;;;;;;6108208;23;20388;-87
2023/06/12 02:12:11;;;;;;;5.67;4.67;;;;;;;;;;6112234;23;20385;-88
2023/06/12 02:14:38;;;;;;;6.17;4.87;;;;;;;;;;6107055;23;20380;-88
2023/06/12 02:17:04;;;;;;;6.90;6.23;;;;;;;;;;6105549;23;20428;-88
2023/06/12 02:19:30;;;;;;;5.90;4.83;;;;;;;;;;6106833;23;20388;-87
2023/06/12 02:21:56;;;;;;;5.97;5.30;;;;;;;;;;6105399;23;20464;-88
2023/06/12 02:24:25;;;;;;;5.37;4.60;;;;;;;;;;6106035;23;20391;-89
2023/06/12 02:26:50;;;;;;;8.63;4.93;;;;;;;;;;6105717;23;20719;-88
2023/06/12 02:29:17;;;;;;;7.73;5.30;;;;;;;;;;6107048;23;20388;-88
2023/06/12 02:31:43;;;;;;;7.47;5.07;;;;;;;;;;6105582;23;20865;-88
2023/06/12 02:34:09;;;;;;;6.40;5.63;;;;;;;;;;6105164;23;20392;-88
2023/06/12 02:36:39;;;;;;;6.00;5.40;;;;;;;;;;6130406;23;20415;-88
2023/06/12 02:39:07;;;;;;;5.30;4.80;;;;;;;;;;6128472;23;20714;-87
2023/06/12 02:41:32;;;;;;;5.87;5.27;;;;;;;;;;6104094;23;21193;-88
2023/06/12 02:43:58;;;;;;;6.33;5.07;;;;;;;;;;6104774;23;20385;-88
2023/06/12 02:46:24;;;;;;;5.60;5.10;;;;;;;;;;6101384;23;20984;-88
2023/06/12 02:48:50;;;;;;;8.03;5.03;;;;;;;;;;6104674;23;20687;-88
2023/06/12 02:51:16;;;;;;;7.77;5.80;;;;;;;;;;6102988;23;20380;-88
2023/06/12 02:53:42;;;;;;;6.07;5.47;;;;;;;;;;6103141;23;20395;-88
2023/06/12 02:56:08;;;;;;;5.90;5.23;;;;;;;;;;6102985;23;20420;-87
2023/06/12 02:58:34;;;;;;;7.33;5.50;;;;;;;;;;6103105;23;20415;-88
2023/06/12 03:01:02;;;;;;;4.90;4.10;;;;;;;;;;6102849;23;20376;-89
2023/06/12 03:03:29;;;;;;;5.60;5.10;;;;;;;;;;6104884;23;20771;-88
2023/06/12 03:05:55;;;;;;;7.70;6.23;;;;;;;;;;6130997;23;20364;-88
2023/06/12 03:08:21;;;;;;;6.30;5.70;;;;;;;;;;6106306;23;20385;-87
2023/06/12 03:10:47;;;;;;;5.30;4.60;;;;;;;;;;6106127;23;20679;-87
2023/06/12 03:13:13;;;;;;;5.47;4.97;;;;;;;;;;6104671;23;20375;-87
2023/06/12 03:15:39;;;;;;;7.80;5.53;;;;;;;;;;6106514;23;20385;-87
2023/06/12 03:18:05;;;;;;;4.90;4.40;;;;;;;;;;6105404;23;20498;-87
2023/06/12 03:20:34;;;;;;;6.30;5.10;;;;;;;;;;6105959;23;20381;-88
2023/06/12 03:23:00;;;;;;;5.87;5.33;;;;;;;;;;6106547;23;20389;-87
2023/06/12 03:25:27;;;;;;;5.40;4.90;;;;;;;;;;6128802;23;20381;-88
2023/06/12 03:27:52;;;;;;;5.53;5.00;;;;;;;;;;6128532;23;20895;-87
2023/06/12 03:30:19;;;;;;;6.53;5.53;;;;;;;;;;6129651;23;20395;-88
2023/06/12 03:32:45;;;;;;;6.50;5.50;;;;;;;;;;6128044;23;20388;-88
2023/06/12 03:35:12;;;;;;;4.83;4.40;;;;;;;;;;6128461;23;20404;-88
2023/06/12 03:37:38;;;;;;;6.00;5.13;;;;;;;;;;6082485;23;1070086;-88
2023/06/12 03:40:05;;;;;;;6.13;5.00;;;;;;;;;;6129452;23;20490;-88
2023/06/12 03:42:31;;;;;;;5.93;4.93;;;;;;;;;;6129658;23;20376;-88
2023/06/12 03:44:57;;;;;;;7.47;5.53;;;;;;;;;;6132436;23;20865;-88
2023/06/12 03:47:23;;;;;;;6.10;5.00;;;;;;;;;;6131641;23;20388;-88
2023/06/12 03:49:48;;;;;;;6.80;5.30;;;;;;;;;;6132761;23;20373;-88
2023/06/12 03:52:15;;;;;;;5.50;5.00;;;;;;;;;;6132748;23;20385;-88
2023/06/12 03:54:40;;;;;;;7.20;5.20;;;;;;;;;;6135729;23;20380;-89
2023/06/12 03:57:06;;;;;;;5.67;5.10;;;;;;;;;;6115011;23;20459;-88
2023/06/12 03:59:33;;;;;;;6.07;5.47;;;;;;;;;;6133430;23;20405;-88
2023/06/12 04:01:59;;;;;;;6.37;5.50;;;;;;;;;;6109121;23;20373;-87
2023/06/12 04:04:25;;;;;;;6.40;4.90;;;;;;;;;;6110467;23;20432;-88
2023/06/12 04:06:53;;;;;;;8.80;5.43;;;;;;;;;;6134486;23;20439;-89
2023/06/12 04:09:20;;;;;;;6.17;5.57;;;;;;;;;;6107795;23;20443;-88
2023/06/12 04:11:49;;;;;;;5.33;4.83;;;;;;;;;;6108937;23;20399;-89
2023/06/12 04:14:15;;;;;;;5.63;5.10;;;;;;;;;;6110563;23;20393;-88
2023/06/12 04:16:41;;;;;;;6.27;5.73;;;;;;;;;;6109307;23;20433;-88
2023/06/12 04:19:07;;;;;;;7.00;6.30;;;;;;;;;;6110379;23;20842;-87
2023/06/12 04:21:33;;;;;;;10.07;7.50;;;;;;;;;;6109536;23;20436;-88
2023/06/12 04:24:03;;;;;;;12.50;10.00;;;;;;;;;;6110839;23;20775;-88
2023/06/12 04:26:29;;;;;;;17.80;10.70;;;;;;;;;;6111076;23;20396;-88
2023/06/12 04:28:56;;;;;;;14.70;9.93;;;;;;;;;;6109720;23;20448;-88
2023/06/12 04:31:23;;;;;;;12.90;8.37;;;;;;;;;;6109982;23;20380;-88
2023/06/12 04:33:51;;;;;;;10.30;7.47;;;;;;;;;;6110532;23;20881;-88
2023/06/12 04:36:17;;;;;;;7.23;6.27;;;;;;;;;;6109345;23;20478;-88
2023/06/12 04:38:50;;;;;;;7.70;6.40;;;;;;;;;;6108658;23;20400;-88
2023/06/12 04:41:18;;;;;;;6.63;6.03;;;;;;;;;;6109657;23;20381;-89
2023/06/12 04:43:44;;;;;;;8.40;5.83;;;;;;;;;;6108787;23;20468;-89
2023/06/12 04:46:13;;;;;;;7.33;6.63;;;;;;;;;;6109592;23;20395;-89
2023/06/12 04:48:41;;;;;;;7.03;6.33;;;;;;;;;;6112877;23;20452;-89
2023/06/12 04:51:07;;;;;;;6.70;5.93;;;;;;;;;;6110766;23;20392;-89
2023/06/12 04:53:34;;;;;;;7.00;6.13;;;;;;;;;;6108937;23;20475;-88
2023/06/12 04:56:04;;;;;;;7.07;5.97;;;;;;;;;;6107306;23;20464;-89
2023/06/12 04:58:32;;;;;;;6.80;6.10;;;;;;;;;;6109625;23;20424;-89
2023/06/12 05:01:00;;;;;;;6.90;6.20;;;;;;;;;;6110019;23;20423;-89
2023/06/12 05:03:26;;;;;;;7.67;6.00;;;;;;;;;;6112875;23;20449;-90
2023/06/12 05:05:52;;;;;;;6.77;5.53;;;;;;;;;;6109813;23;20385;-88
2023/06/12 05:08:18;;;;;;;5.97;5.47;;;;;;;;;;6110175;23;20431;-88
2023/06/12 05:10:44;;;;;;;7.37;5.90;;;;;;;;;;6134160;23;20373;-89
2023/06/12 05:13:13;;;;;;;7.47;6.40;;;;;;;;;;6109993;23;20468;-89
2023/06/12 05:15:39;;;;;;;6.93;6.30;;;;;;;;;;6134794;23;20391;-89
2023/06/12 05:18:05;;;;;;;6.97;6.00;;;;;;;;;;6108395;23;20435;-88
2023/06/12 05:20:31;;;;;;;6.97;6.27;;;;;;;;;;6106783;23;20412;-88
2023/06/12 05:22:57;;;;;;;5.87;5.30;;;;;;;;;;6106974;23;20471;-88
2023/06/12 05:25:23;;;;;;;7.03;6.33;;;;;;;;;;6106584;23;20860;-88
2023/06/12 05:27:49;;;;;;;8.17;6.13;;;;;;;;;;6106695;23;20385;-89
2023/06/12 05:30:16;;;;;;;8.17;6.63;;;;;;;;;;6130978;23;20369;-87
2023/06/12 05:32:43;;;;;;;7.23;6.40;;;;;;;;;;6106449;23;20365;-87
2023/06/12 05:35:10;;;;;;;7.47;6.70;;;;;;;;;;6132004;23;20396;-88
2023/06/12 05:37:35;;;;;;;6.37;5.77;;;;;;;;;;6105238;23;20501;-87
2023/06/12 05:40:05;;;;;;;8.17;6.57;;;;;;;;;;6107011;23;20385;-87
2023/06/12 05:42:31;;;;;;;7.33;6.53;;;;;;;;;;6108506;23;20385;-87
2023/06/12 05:44:57;;;;;;;7.00;6.30;;;;;;;;;;6106846;23;20447;-87
2023/06/12 05:47:23;;;;;;;9.50;5.70;;;;;;;;;;6106607;23;20455;-88
2023/06/12 05:49:49;;;;;;;7.03;6.10;;;;;;;;;;6108005;23;20920;-87
2023/06/12 05:52:15;;;;;;;7.63;6.83;;;;;;;;;;6105803;23;20476;-86
2023/06/12 05:54:41;;;;;;;7.23;6.37;;;;;;;;;;6107655;23;20472;-86
2023/06/12 05:57:07;;;;;;;7.23;6.47;;;;;;;;;;6107034;23;20924;-87
2023/06/12 05:59:35;;;;;;;7.33;6.37;;;;;;;;;;6107213;23;20475;-86
2023/06/12 06:02:01;;;;;;;7.70;7.00;;;;;;;;;;6130572;23;20442;-86
2023/06/12 06:04:27;;;;;;;7.37;6.67;;;;;;;;;;6107104;23;20373;-87
2023/06/12 06:06:53;;;;;;;7.50;6.80;;;;;;;;;;6106302;23;20412;-87
2023/06/12 06:09:20;;;;;;;8.70;6.73;;;;;;;;;;6107375;23;20934;-86
2023/06/12 06:11:46;;;;;;;7.27;6.40;;;;;;;;;;6106904;23;20401;-86
2023/06/12 06:14:12;;;;;;;7.57;6.80;;;;;;;;;;6107264;23;20456;-86
2023/06/12 06:16:38;;;;;;;7.67;6.90;;;;;;;;;;6102511;23;20475;-85
2023/06/12 06:19:05;;;;;;;8.27;6.40;;;;;;;;;;6103493;23;20381;-85
2023/06/12 06:21:31;;;;;;;7.10;6.40;;;;;;;;;;6103885;23;20381;-85
2023/06/12 06:23:57;;;;;;;6.60;6.00;;;;;;;;;;6103849;23;20435;-85
2023/06/12 06:26:23;;;;;;;7.70;7.00;;;;;;;;;;6104032;23;20385;-85
2023/06/12 06:28:49;;;;;;;7.30;6.60;;;;;;;;;;6101597;23;20391;-86
2023/06/12 06:31:15;;;;;;;8.90;7.10;;;;;;;;;;6103196;23;20385;-85
2023/06/12 06:33:41;;;;;;;6.80;6.10;;;;;;;;;;6102807;23;20393;-87
2023/06/12 06:36:08;;;;;;;10.27;7.10;;;;;;;;;;6104762;23;20519;-84
2023/06/12 06:38:34;;;;;;;7.03;6.33;;;;;;;;;;6128188;23;20393;-86
2023/06/12 06:41:00;;;;;;;7.87;7.17;;;;;;;;;;6102933;23;20508;-85
2023/06/12 06:43:26;;;;;;;10.00;6.70;;;;;;;;;;6128789;23;20369;-86
2023/06/12 06:45:52;;;;;;;8.90;8.03;;;;;;;;;;6128581;23;20372;-85
2023/06/12 06:48:18;;;;;;;7.80;6.53;;;;;;;;;;6105510;23;20377;-86
2023/06/12 06:50:44;;;;;;;8.53;7.63;;;;;;;;;;6108820;23;20439;-85
2023/06/12 06:53:10;;;;;;;8.33;7.60;;;;;;;;;;6105883;23;20384;-85
2023/06/12 06:55:38;;;;;;;11.77;7.70;;;;;;;;;;6132422;23;20365;-87
2023/06/12 06:58:04;;;;;;;8.80;7.10;;;;;;;;;;6131633;23;20420;-85
2023/06/12 07:00:30;;;;;;;8.00;7.30;;;;;;;;;;6107728;23;20468;-87
2023/06/12 07:02:56;;;;;;;11.00;6.57;;;;;;;;;;6106300;23;20435;-88
2023/06/12 07:05:22;;;;;;;7.67;6.80;;;;;;;;;;6131345;23;20365;-87
2023/06/12 07:07:48;;;;;;;7.60;6.83;;;;;;;;;;6129195;23;20384;-87
2023/06/12 07:10:15;;;;;;;8.03;7.17;;;;;;;;;;6108034;23;20385;-87
2023/06/12 07:12:41;;;;;;;8.93;7.90;;;;;;;;;;6106484;23;20400;-86
2023/06/12 07:15:07;;;;;;;8.33;7.60;;;;;;;;;;6109178;23;20420;-86
2023/06/12 07:17:33;;;;;;;8.80;6.90;;;;;;;;;;6107927;23;20429;-86
2023/06/12 07:19:59;;;;;;;8.57;7.77;;;;;;;;;;6107749;23;20420;-86
2023/06/12 07:22:27;;;;;;;8.60;7.43;;;;;;;;;;6108102;23;20468;-85
2023/06/12 07:24:53;;;;;;;7.30;6.60;;;;;;;;;;6107845;23;20541;-86
2023/06/12 07:27:19;;;;;;;7.50;6.80;;;;;;;;;;6108825;23;20739;-85
2023/06/12 07:29:45;;;;;;;8.30;7.47;;;;;;;;;;6107600;23;20936;-87
2023/06/12 07:32:11;;;;;;;7.80;7.10;;;;;;;;;;6109777;23;20417;-87
2023/06/12 07:34:37;;;;;;;8.50;7.20;;;;;;;;;;6131906;23;20397;-86
2023/06/12 07:37:04;;;;;;;7.70;6.90;;;;;;;;;;6107950;23;20472;-86
2023/06/12 07:39:30;;;;;;;9.37;6.90;;;;;;;;;;6108350;23;20400;-86
2023/06/12 07:41:56;;;;;;;7.70;7.00;;;;;;;;;;6113274;23;20468;-87
2023/06/12 07:44:22;;;;;;;7.90;7.20;;;;;;;;;;6107319;23;20904;-87
2023/06/12 07:46:48;;;;;;;8.17;7.47;;;;;;;;;;6110329;23;20391;-86
2023/06/12 07:49:16;;;;;;;8.83;7.07;;;;;;;;;;6109407;23;20381;-86
2023/06/12 07:51:42;;;;;;;7.33;6.13;;;;;;;;;;6108532;23;20540;-87
2023/06/12 07:54:08;;;;;;;7.93;7.17;;;;;;;;;;6109559;23;20776;-87
2023/06/12 07:56:35;;;;;;;8.23;7.53;;;;;;;;;;6112206;23;20420;-86
2023/06/12 07:59:10;;;;;;;8.73;7.77;;;;;;;;;;6108521;23;20385;-86
2023/06/12 08:01:36;;;;;;;8.17;7.47;;;;;;;;;;6110239;23;20381;-86
2023/06/12 08:04:03;;;;;;;11.30;7.17;;;;;;;;;;6132866;23;20365;-86
2023/06/12 08:06:33;;;;;;;7.23;6.53;;;;;;;;;;6133443;23;20369;-86
2023/06/12 08:08:59;;;;;;;8.63;7.53;;;;;;;;;;6133108;23;20711;-85
2023/06/12 08:11:25;;;;;;;9.07;8.03;;;;;;;;;;6133251;23;20861;-85
2023/06/12 08:13:51;;;;;;;14.43;6.87;;;;;;;;;;6109061;23;20811;-87
2023/06/12 08:16:18;;;;;;;7.57;6.70;;;;;;;;;;6113987;23;20428;-87
2023/06/12 08:18:44;;;;;;;8.30;6.70;;;;;;;;;;6110221;23;20475;-87
2023/06/12 08:21:10;;;;;;;8.00;7.20;;;;;;;;;;6110240;23;20773;-86
2023/06/12 08:23:36;;;;;;;7.73;7.03;;;;;;;;;;6109486;23;20385;-87
2023/06/12 08:26:04;;;;;;;8.33;7.43;;;;;;;;;;6109662;23;20875;-87
2023/06/12 08:28:30;;;;;;;8.90;8.00;;;;;;;;;;6110065;23;20389;-88
2023/06/12 08:30:57;;;;;;;9.37;8.47;;;;;;;;;;6111084;23;20389;-87
2023/06/12 08:33:25;;;;;;;8.33;7.40;;;;;;;;;;6109433;23;20876;-88
2023/06/12 08:35:51;;;;;;;8.00;7.30;;;;;;;;;;6109944;23;20864;-87
2023/06/12 08:38:17;;;;;;;9.90;8.23;;;;;;;;;;6107955;23;20393;-86
2023/06/12 08:40:43;;;;;;;7.33;6.10;;;;;;;;;;6109515;23;20376;-87
2023/06/12 08:43:10;;;;;;;6.80;6.20;;;;;;;;;;6110621;23;20388;-86
2023/06/12 08:45:38;;;;;;;8.00;6.87;;;;;;;;;;6109438;23;20857;-87
2023/06/12 08:48:05;;;;;;;7.10;6.40;;;;;;;;;;6111887;23;20377;-86
2023/06/12 08:50:31;;;;;;;7.17;6.47;;;;;;;;;;6109532;23;20423;-87
2023/06/12 08:52:57;;;;;;;7.87;6.67;;;;;;;;;;6107776;23;20389;-87
2023/06/12 08:55:23;;;;;;;6.30;5.70;;;;;;;;;;6108139;23;20496;-87
2023/06/12 08:57:49;;;;;;;10.40;5.67;;;;;;;;;;6109453;23;20424;-85
2023/06/12 09:00:16;;;;;;;8.37;6.83;;;;;;;;;;6102068;23;20464;-87
2023/06/12 09:03:00;;;;;;;8.27;6.07;;;;;;;;;;6108859;23;20389;-85
2023/06/12 09:05:29;;;;;;;6.43;5.83;;;;;;;;;;6103532;23;20377;-86
2023/06/12 09:07:55;;;;;;;7.73;6.63;;;;;;;;;;6113794;23;20431;-92
2023/06/12 09:10:21;;;;;;;8.03;7.23;;;;;;;;;;6113168;23;20385;-90
2023/06/12 09:12:47;;;;;;;7.10;6.40;;;;;;;;;;6110159;23;20385;-87
2023/06/12 09:15:17;;;;;;;6.90;6.30;;;;;;;;;;6132822;23;20381;-87
2023/06/12 09:17:43;;;;;;;7.10;6.40;;;;;;;;;;6113738;23;20420;-87
2023/06/12 09:20:09;;;;;;;9.17;6.93;;;;;;;;;;6109019;23;20396;-87
2023/06/12 09:22:38;;;;;;;6.20;5.60;;;;;;;;;;6113428;23;20781;-86
2023/06/12 09:25:06;;;;;;;8.87;8.00;;;;;;;;;;6108494;23;20389;-86
2023/06/12 09:27:37;;;;;;;8.63;6.53;;;;;;;;;;6132174;23;20365;-87
2023/06/12 09:30:04;;;;;;;6.63;6.00;;;;;;;;;;6107505;23;20377;-85
2023/06/12 09:32:30;;;;;;;8.53;6.60;;;;;;;;;;6134955;23;20354;-85
2023/06/12 09:34:56;;;;;;;10.63;6.70;;;;;;;;;;6133527;23;20385;-85
2023/06/12 09:37:22;;;;;;;6.70;6.00;;;;;;;;;;6109455;23;20431;-85
2023/06/12 09:39:48;;;;;;;6.60;6.00;;;;;;;;;;6109261;23;20404;-85
2023/06/12 09:42:17;;;;;;;7.17;6.20;;;;;;;;;;6109806;23;20381;-84
2023/06/12 09:44:43;;;;;;;7.83;6.40;;;;;;;;;;6111305;23;20380;-85
2023/06/12 09:47:09;;;;;;;6.50;5.87;;;;;;;;;;6108189;23;20452;-85
2023/06/12 09:49:35;;;;;;;7.17;6.03;;;;;;;;;;6133282;23;20377;-85
2023/06/12 09:52:02;;;;;;;6.40;5.80;;;;;;;;;;6109871;23;20384;-86
2023/06/12 09:54:28;;;;;;;6.60;5.90;;;;;;;;;;6113329;23;20389;-84
2023/06/12 09:56:54;;;;;;;7.03;6.33;;;;;;;;;;6107140;23;20417;-86
2023/06/12 09:59:22;;;;;;;9.37;5.80;;;;;;;;;;6107416;23;20452;-85
2023/06/12 10:01:49;;;;;;;6.77;6.17;;;;;;;;;;6109023;23;20377;-85
2023/06/12 10:04:15;;;;;;;8.43;6.87;;;;;;;;;;6110350;23;20368;-86
2023/06/12 10:06:42;;;;;;;6.50;5.90;;;;;;;;;;6108723;23;20383;-85
2023/06/12 10:09:08;;;;;;;7.80;6.63;;;;;;;;;;6106512;23;20388;-88
2023/06/12 10:11:34;;;;;;;7.40;6.70;;;;;;;;;;6110402;23;20377;-88
2023/06/12 10:14:00;;;;;;;8.07;6.80;;;;;;;;;;6112217;23;20392;-88
2023/06/12 10:16:26;;;;;;;7.00;6.30;;;;;;;;;;6110395;23;20435;-89
2023/06/12 10:18:52;;;;;;;7.40;6.70;;;;;;;;;;6110564;23;20381;-88
2023/06/12 10:21:21;;;;;;;7.10;5.87;;;;;;;;;;6109632;23;20742;-89
2023/06/12 10:23:47;;;;;;;6.60;5.73;;;;;;;;;;6110329;23;21129;-89
2023/06/12 10:26:14;;;;;;;7.87;6.20;;;;;;;;;;6132601;23;20376;-89
2023/06/12 10:28:40;;;;;;;8.37;6.97;;;;;;;;;;6110561;23;20381;-89
2023/06/12 10:31:12;;;;;;;6.90;6.20;;;;;;;;;;6109018;23;20412;-89
2023/06/12 10:33:39;;;;;;;7.03;6.27;;;;;;;;;;6134826;23;20384;-89
2023/06/12 10:36:11;;;;;;;7.13;6.30;;;;;;;;;;6109089;23;20877;-90
2023/06/12 10:38:44;;;;;;;8.47;5.83;;;;;;;;;;6110206;23;20918;-88
2023/06/12 10:41:11;;;;;;;6.80;6.10;;;;;;;;;;6108791;23;20434;-89
2023/06/12 10:43:36;;;;;;;6.87;6.17;;;;;;;;;;6135326;23;20353;-88
2023/06/12 10:46:03;;;;;;;7.53;6.83;;;;;;;;;;6108913;23;20385;-89
2023/06/12 10:48:28;;;;;;;6.83;6.23;;;;;;;;;;6109048;23;20381;-87
2023/06/12 10:50:56;;;;;;;6.90;6.30;;;;;;;;;;6130029;23;20365;-86
2023/06/12 10:53:23;;;;;;;7.43;6.37;;;;;;;;;;6104495;23;20412;-87
2023/06/12 10:55:49;;;;;;;7.90;7.20;;;;;;;;;;6127295;23;20408;-87
2023/06/12 10:58:21;;;;;;;7.37;6.77;;;;;;;;;;6111185;23;20488;-85
2023/06/12 11:00:51;;;;;;;6.97;6.27;;;;;;;;;;6105801;23;20385;-87
2023/06/12 11:03:18;;;;;;;6.97;6.30;;;;;;;;;;6108572;23;20429;-86
2023/06/12 11:05:48;;;;;;;7.40;6.47;;;;;;;;;;6106956;23;20416;-88
2023/06/12 11:08:14;;;;;;;7.10;6.40;;;;;;;;;;6108777;23;20383;-87
2023/06/12 11:10:40;;;;;;;9.73;6.30;;;;;;;;;;6105962;23;20412;-85
2023/06/12 11:13:06;;;;;;;7.70;6.90;;;;;;;;;;6105818;23;20405;-88
2023/06/12 11:15:33;;;;;;;7.17;6.50;;;;;;;;;;6107054;23;20443;-88
2023/06/12 11:17:59;;;;;;;10.27;6.40;;;;;;;;;;6108349;23;20428;-88
2023/06/12 11:20:26;;;;;;;8.17;6.70;;;;;;;;;;6109435;23;20373;-88
2023/06/12 11:23:00;;;;;;;10.10;6.40;;;;;;;;;;6110529;23;20396;-89
2023/06/12 11:25:26;;;;;;;6.60;6.10;;;;;;;;;;6109620;23;20391;-87
2023/06/12 11:27:54;;;;;;;7.00;6.30;;;;;;;;;;6111858;23;20409;-87
2023/06/12 11:30:20;;;;;;;7.03;6.40;;;;;;;;;;6111561;23;20475;-88
2023/06/12 11:32:46;;;;;;;8.20;6.33;;;;;;;;;;6108675;23;20408;-89
2023/06/12 11:35:12;;;;;;;8.53;7.07;;;;;;;;;;6110381;23;20380;-88
2023/06/12 11:37:38;;;;;;;7.23;6.10;;;;;;;;;;6109222;23;20420;-87
2023/06/12 11:40:09;;;;;;;6.53;5.93;;;;;;;;;;6108692;23;20404;-88
2023/06/12 11:42:36;;;;;;;6.83;6.10;;;;;;;;;;6111000;23;20945;-89
2023/06/12 11:45:02;;;;;;;7.20;6.10;;;;;;;;;;6110553;23;20412;-88
2023/06/12 11:47:28;;;;;;;6.70;6.00;;;;;;;;;;6133895;23;20369;-87
2023/06/12 11:49:54;;;;;;;7.07;5.80;;;;;;;;;;6132667;23;20852;-87
2023/06/12 11:52:21;;;;;;;6.20;5.60;;;;;;;;;;6109580;23;20383;-90
2023/06/12 11:54:57;;;;;;;9.10;5.80;;;;;;;;;;6111391;23;20384;-87
2023/06/12 11:57:26;;;;;;;6.17;5.57;;;;;;;;;;6112785;23;20451;-88
2023/06/12 11:59:56;;;;;;;6.20;5.60;;;;;;;;;;6110604;23;20385;-89
2023/06/12 12:02:26;;;;;;;5.83;5.33;;;;;;;;;;6115456;23;20382;-88
2023/06/12 12:04:53;;;;;;;6.10;5.50;;;;;;;;;;6111024;23;20369;-88
2023/06/12 12:07:20;;;;;;;6.40;5.70;;;;;;;;;;6112284;23;20452;-88
2023/06/12 12:09:46;;;;;;;6.40;5.50;;;;;;;;;;6134806;23;20435;-87
2023/06/12 12:12:12;;;;;;;6.80;5.80;;;;;;;;;;6112688;23;20400;-87
2023/06/12 12:14:48;;;;;;;7.43;5.93;;;;;;;;;;6109315;23;21098;-89
2023/06/12 12:17:16;;;;;;;6.43;5.93;;;;;;;;;;6111927;23;20471;-88
2023/06/12 12:19:42;;;;;;;6.63;5.97;;;;;;;;;;6109273;23;20391;-89
2023/06/12 12:22:09;;;;;;;6.00;5.43;;;;;;;;;;6112415;23;20396;-89
2023/06/12 12:24:36;;;;;;;6.90;5.70;;;;;;;;;;6135266;23;20393;-91
2023/06/12 12:27:03;;;;;;;7.07;6.47;;;;;;;;;;6109598;23;20970;-88
2023/06/12 12:29:32;;;;;;;7.40;5.73;;;;;;;;;;6108551;23;20421;-86
2023/06/12 12:31:58;;;;;;;5.83;5.23;;;;;;;;;;6108960;23;20385;-90
2023/06/12 12:34:26;;;;;;;6.23;5.63;;;;;;;;;;6111430;23;20388;-89
2023/06/12 12:36:52;;;;;;;6.63;6.03;;;;;;;;;;6109887;23;20420;-90
2023/06/12 12:39:18;;;;;;;7.30;6.17;;;;;;;;;;6110581;23;20404;-88
2023/06/12 12:41:44;;;;;;;7.20;5.87;;;;;;;;;;6109456;23;20432;-89
2023/06/12 12:44:10;;;;;;;7.00;5.70;;;;;;;;;;6109482;23;20384;-89
2023/06/12 12:46:37;;;;;;;6.50;5.50;;;;;;;;;;6110639;23;20388;-90
2023/06/12 12:49:03;;;;;;;6.10;5.50;;;;;;;;;;6109384;23;20408;-88
2023/06/12 12:51:29;;;;;;;5.83;5.23;;;;;;;;;;6113479;23;20547;-88
2023/06/12 12:53:56;;;;;;;6.63;5.93;;;;;;;;;;6110615;23;20385;-89
2023/06/12 12:56:22;;;;;;;6.50;5.90;;;;;;;;;;6109701;23;20452;-88
2023/06/12 12:58:49;;;;;;;6.27;5.67;;;;;;;;;;6108182;23;20380;-89
2023/06/12 13:01:15;;;;;;;6.47;5.87;;;;;;;;;;6108976;23;21088;-90
2023/06/12 13:03:41;;;;;;;6.03;5.43;;;;;;;;;;6135414;23;20361;-89
2023/06/12 13:06:08;;;;;;;6.07;5.47;;;;;;;;;;6108050;23;20377;-88
2023/06/12 13:08:36;;;;;;;7.83;5.97;;;;;;;;;;6113732;23;20472;-88
2023/06/12 13:11:02;;;;;;;5.93;5.43;;;;;;;;;;6109711;23;20408;-88
2023/06/12 13:13:28;;;;;;;5.87;5.37;;;;;;;;;;6134754;23;20391;-88
2023/06/12 13:15:54;;;;;;;7.43;6.23;;;;;;;;;;6109594;23;20385;-88
2023/06/12 13:18:20;;;;;;;6.60;6.00;;;;;;;;;;6114525;23;20429;-89
2023/06/12 13:20:46;;;;;;;6.77;6.10;;;;;;;;;;6110889;23;20383;-89
2023/06/12 13:23:13;;;;;;;8.30;6.73;;;;;;;;;;6109493;23;20381;-89
2023/06/12 13:25:39;;;;;;;6.60;6.00;;;;;;;;;;6108544;23;20381;-89
2023/06/12 13:28:05;;;;;;;7.63;6.23;;;;;;;;;;6110144;23;20377;-89
2023/06/12 13:30:31;;;;;;;7.27;6.67;;;;;;;;;;6108227;23;20448;-88
2023/06/12 13:32:57;;;;;;;6.80;6.27;;;;;;;;;;6109041;23;20385;-89
2023/06/12 13:35:23;;;;;;;7.00;6.40;;;;;;;;;;6107716;23;20488;-89
2023/06/12 13:37:49;;;;;;;6.70;6.10;;;;;;;;;;6132327;23;20412;-87
2023/06/12 13:40:16;;;;;;;6.63;5.93;;;;;;;;;;6107393;23;20412;-89
2023/06/12 13:42:44;;;;;;;6.90;6.30;;;;;;;;;;6133796;23;20373;-89
2023/06/12 13:45:10;;;;;;;5.80;5.20;;;;;;;;;;6106458;23;20467;-89
2023/06/12 13:47:37;;;;;;;6.50;5.90;;;;;;;;;;6107523;23;20381;-88
2023/06/12 13:50:03;;;;;;;6.17;5.67;;;;;;;;;;6109388;23;20381;-88
2023/06/12 13:52:30;;;;;;;6.40;5.80;;;;;;;;;;6107627;23;20404;-87
2023/06/12 13:54:56;;;;;;;6.77;6.17;;;;;;;;;;6114836;23;20396;-89
2023/06/12 13:57:22;;;;;;;6.40;5.90;;;;;;;;;;6134655;23;20417;-88
2023/06/12 13:59:55;;;;;;;7.40;5.70;;;;;;;;;;6134891;23;20701;-87
2023/06/12 14:02:21;;;;;;;7.20;6.50;;;;;;;;;;6132192;23;20396;-89
2023/06/12 14:04:48;;;;;;;7.10;6.47;;;;;;;;;;6108880;23;20377;-89
2023/06/12 14:07:14;;;;;;;6.53;5.83;;;;;;;;;;6110222;23;20388;-89
2023/06/12 14:09:40;;;;;;;6.83;6.17;;;;;;;;;;6110388;23;20385;-91
2023/06/12 14:12:07;;;;;;;8.30;6.27;;;;;;;;;;6112423;23;20377;-91
2023/06/12 14:14:32;;;;;;;6.93;6.33;;;;;;;;;;6109998;23;20447;-89
2023/06/12 14:16:59;;;;;;;6.27;5.60;;;;;;;;;;6109964;23;20440;-90
2023/06/12 14:19:25;;;;;;;7.00;6.40;;;;;;;;;;6110345;23;20485;-90
2023/06/12 14:21:51;;;;;;;6.97;6.37;;;;;;;;;;6112084;23;20377;-90
2023/06/12 14:24:16;;;;;;;6.47;5.87;;;;;;;;;;6109488;23;21331;-89
2023/06/12 14:26:43;;;;;;;7.87;6.10;;;;;;;;;;6112008;23;20389;-89
2023/06/12 14:29:09;;;;;;;7.33;5.30;;;;;;;;;;6108737;23;20373;-91
2023/06/12 14:31:35;;;;;;;6.83;6.30;;;;;;;;;;6108928;23;20384;-89
2023/06/12 14:34:01;;;;;;;7.07;6.37;;;;;;;;;;6108677;23;20400;-91
2023/06/12 14:36:27;;;;;;;7.60;6.77;;;;;;;;;;6109974;23;20180;-91
2023/06/12 14:38:53;;;;;;;6.70;5.80;;;;;;;;;;6109882;23;20424;-90
2023/06/12 14:41:20;;;;;;;9.00;6.57;;;;;;;;;;6108213;23;20451;-89